sensor_id;sensor_type;location;lat;lon;timestamp;pressure;altitude;pressure_sealevel;temperature;humidity
17254;BME280;32542;52.832;13.816;2024-01-30T00:00:57;102861.03;;;21.29;46.09
17254;BME280;32542;52.832;13.816;2024-01-30T00:04:02;102857.50;;;21.27;46.14
17254;BME280;32542;52.832;13.816;2024-01-30T00:07:05;102853.13;;;21.25;46.17
17254;BME280;32542;52.832;13.816;2024-01-30T00:10:08;102858.47;;;21.25;46.26
17254;BME280;32542;52.832;13.816;2024-01-30T00:13:11;102862.91;;;21.24;46.22
17254;BME280;32542;52.832;13.816;2024-01-30T00:16:22;102854.03;;;21.24;46.45
17254;BME280;32542;52.832;13.816;2024-01-30T00:19:27;102860.28;;;21.23;46.28
17254;BME280;32542;52.832;13.816;2024-01-30T00:22:30;102864.72;;;21.22;46.17
17254;BME280;32542;52.832;13.816;2024-01-30T00:25:33;102864.72;;;21.22;46.28
17254;BME280;32542;52.832;13.816;2024-01-30T00:28:36;102856.72;;;21.21;46.20
17254;BME280;32542;52.832;13.816;2024-01-30T00:31:39;102859.41;;;21.21;46.29
17254;BME280;32542;52.832;13.816;2024-01-30T00:34:44;102862.97;;;21.20;46.36
17254;BME280;32542;52.832;13.816;2024-01-30T00:37:47;102865.66;;;21.20;46.33
17254;BME280;32542;52.832;13.816;2024-01-30T00:40:50;102864.75;;;21.19;46.32
17254;BME280;32542;52.832;13.816;2024-01-30T00:43:53;102863.88;;;21.19;46.33
17254;BME280;32542;52.832;13.816;2024-01-30T00:46:56;102857.69;;;21.18;46.28
17254;BME280;32542;52.832;13.816;2024-01-30T00:50:00;102855.88;;;21.19;46.35
17254;BME280;32542;52.832;13.816;2024-01-30T00:53:03;102856.81;;;21.18;46.41
17254;BME280;32542;52.832;13.816;2024-01-30T00:56:06;102853.25;;;21.17;46.40
17254;BME280;32542;52.832;13.816;2024-01-30T00:59:09;102858.56;;;21.17;46.33
17254;BME280;32542;52.832;13.816;2024-01-30T01:02:12;102860.34;;;21.17;46.30
17254;BME280;32542;52.832;13.816;2024-01-30T01:05:18;102856.84;;;21.15;46.26
17254;BME280;32542;52.832;13.816;2024-01-30T01:08:21;102863.09;;;21.14;46.29
17254;BME280;32542;52.832;13.816;2024-01-30T01:11:24;102863.09;;;21.14;46.31
17254;BME280;32542;52.832;13.816;2024-01-30T01:14:27;102867.50;;;21.15;46.24
17254;BME280;32542;52.832;13.816;2024-01-30T01:17:29;102863.97;;;21.14;46.31
17254;BME280;32542;52.832;13.816;2024-01-30T01:20:34;102862.16;;;21.15;46.39
17254;BME280;32542;52.832;13.816;2024-01-30T01:23:37;102856.84;;;21.15;46.31
17254;BME280;32542;52.832;13.816;2024-01-30T01:26:40;102859.53;;;21.13;46.26
17254;BME280;32542;52.832;13.816;2024-01-30T01:29:43;102860.41;;;21.14;46.28
17254;BME280;32542;52.832;13.816;2024-01-30T01:32:47;102855.97;;;21.13;46.34
17254;BME280;32542;52.832;13.816;2024-01-30T01:35:58;102852.47;;;21.12;46.36
17254;BME280;32542;52.832;13.816;2024-01-30T01:39:00;102850.66;;;21.13;46.32
17254;BME280;32542;52.832;13.816;2024-01-30T01:42:04;102852.47;;;21.12;46.41
17254;BME280;32542;52.832;13.816;2024-01-30T01:45:07;102846.25;;;21.12;46.38
17254;BME280;32542;52.832;13.816;2024-01-30T01:48:11;102850.69;;;21.11;46.24
17254;BME280;32542;52.832;13.816;2024-01-30T01:51:15;102846.25;;;21.12;46.29
17254;BME280;32542;52.832;13.816;2024-01-30T01:54:19;102850.66;;;21.13;46.28
17254;BME280;32542;52.832;13.816;2024-01-30T01:57:22;102856.91;;;21.12;46.31
17254;BME280;32542;52.832;13.816;2024-01-30T02:00:25;102851.56;;;21.12;46.28
17254;BME280;32542;52.832;13.816;2024-01-30T02:03:28;102852.47;;;21.11;46.30
17254;BME280;32542;52.832;13.816;2024-01-30T02:06:33;102855.13;;;21.11;46.30
17254;BME280;32542;52.832;13.816;2024-01-30T02:09:36;102854.25;;;21.10;46.30
17254;BME280;32542;52.832;13.816;2024-01-30T02:12:40;102848.06;;;21.10;46.27
17254;BME280;32542;52.832;13.816;2024-01-30T02:15:43;102848.06;;;21.10;46.31
17254;BME280;32542;52.832;13.816;2024-01-30T02:18:46;102845.38;;;21.10;46.33
17254;BME280;32542;52.832;13.816;2024-01-30T02:21:51;102840.94;;;21.09;46.39
17254;BME280;32542;52.832;13.816;2024-01-30T02:24:55;102856.06;;;21.10;46.29
17254;BME280;32542;52.832;13.816;2024-01-30T02:27:57;102846.25;;;21.10;46.24
17254;BME280;32542;52.832;13.816;2024-01-30T02:31:00;102846.25;;;21.10;46.29
17254;BME280;32542;52.832;13.816;2024-01-30T02:34:03;102843.59;;;21.10;46.27
17254;BME280;32542;52.832;13.816;2024-01-30T02:37:08;102837.41;;;21.10;46.24
17254;BME280;32542;52.832;13.816;2024-01-30T02:40:11;102840.06;;;21.08;46.17
17254;BME280;32542;52.832;13.816;2024-01-30T02:43:15;102833.88;;;21.08;46.15
17254;BME280;32542;52.832;13.816;2024-01-30T02:46:18;102828.56;;;21.08;46.02
17254;BME280;32542;52.832;13.816;2024-01-30T02:49:21;102825.88;;;21.08;46.08
17254;BME280;32542;52.832;13.816;2024-01-30T02:52:26;102828.56;;;21.08;46.08
17254;BME280;32542;52.832;13.816;2024-01-30T02:55:29;102828.56;;;21.08;45.97
17254;BME280;32542;52.832;13.816;2024-01-30T02:58:32;102830.34;;;21.07;45.99
17254;BME280;32542;52.832;13.816;2024-01-30T03:01:42;102831.22;;;21.08;46.16
17254;BME280;32542;52.832;13.816;2024-01-30T03:04:45;102828.56;;;21.08;46.00
17254;BME280;32542;52.832;13.816;2024-01-30T03:07:50;102822.34;;;21.07;46.07
17254;BME280;32542;52.832;13.816;2024-01-30T03:10:53;102826.78;;;21.07;46.07
17254;BME280;32542;52.832;13.816;2024-01-30T03:13:56;102825.88;;;21.06;46.02
17254;BME280;32542;52.832;13.816;2024-01-30T03:16:59;102812.59;;;21.05;46.05
17254;BME280;32542;52.832;13.816;2024-01-30T03:20:02;102822.38;;;21.06;46.05
17254;BME280;32542;52.832;13.816;2024-01-30T03:23:07;102815.28;;;21.05;46.11
17254;BME280;32542;52.832;13.816;2024-01-30T03:26:09;102819.72;;;21.04;46.04
17254;BME280;32542;52.832;13.816;2024-01-30T03:29:14;102819.72;;;21.06;45.97
17254;BME280;32542;52.832;13.816;2024-01-30T03:32:17;102815.28;;;21.05;46.15
17254;BME280;32542;52.832;13.816;2024-01-30T03:35:20;102816.19;;;21.04;46.07
17254;BME280;32542;52.832;13.816;2024-01-30T03:38:24;102823.25;;;21.05;46.19
17254;BME280;32542;52.832;13.816;2024-01-30T03:41:27;102823.25;;;21.05;45.99
17254;BME280;32542;52.832;13.816;2024-01-30T03:44:30;102821.53;;;21.04;46.02
17254;BME280;32542;52.832;13.816;2024-01-30T03:47:33;102813.53;;;21.04;46.02
17254;BME280;32542;52.832;13.816;2024-01-30T03:50:36;102821.53;;;21.04;45.92
17254;BME280;32542;52.832;13.816;2024-01-30T03:53:41;102816.16;;;21.05;46.06
17254;BME280;32542;52.832;13.816;2024-01-30T03:56:43;102819.72;;;21.06;45.94
17254;BME280;32542;52.832;13.816;2024-01-30T03:59:46;102816.13;;;21.07;45.75
17254;BME280;32542;52.832;13.816;2024-01-30T04:02:49;102817.91;;;21.08;45.70
17254;BME280;32542;52.832;13.816;2024-01-30T04:05:53;102812.53;;;21.09;45.75
17254;BME280;32542;52.832;13.816;2024-01-30T04:08:57;102816.09;;;21.10;45.61
17254;BME280;32542;52.832;13.816;2024-01-30T04:12:00;102818.75;;;21.10;45.56
17254;BME280;32542;52.832;13.816;2024-01-30T04:15:05;102822.28;;;21.10;45.66
17254;BME280;32542;52.832;13.816;2024-01-30T04:18:08;102817.81;;;21.11;45.73
17254;BME280;32542;52.832;13.816;2024-01-30T04:21:10;102819.59;;;21.12;45.61
17254;BME280;32542;52.832;13.816;2024-01-30T04:24:15;102813.38;;;21.11;45.70
17254;BME280;32542;52.832;13.816;2024-01-30T04:27:20;102815.16;;;21.11;45.62
17254;BME280;32542;52.832;13.816;2024-01-30T04:30:23;102818.72;;;21.11;45.58
17254;BME280;32542;52.832;13.816;2024-01-30T04:33:25;102819.59;;;21.10;45.68
17254;BME280;32542;52.832;13.816;2024-01-30T04:36:29;102821.38;;;21.11;45.60
17254;BME280;32542;52.832;13.816;2024-01-30T04:39:34;102817.81;;;21.11;45.59
17254;BME280;32542;52.832;13.816;2024-01-30T04:42:37;102828.47;;;21.11;45.62
17254;BME280;32542;52.832;13.816;2024-01-30T04:45:40;102827.59;;;21.10;45.68
17254;BME280;32542;52.832;13.816;2024-01-30T04:48:43;102824.94;;;21.10;45.71
17254;BME280;32542;52.832;13.816;2024-01-30T04:51:46;102825.84;;;21.09;45.62
17254;BME280;32542;52.832;13.816;2024-01-30T04:54:50;102824.97;;;21.09;45.75
17254;BME280;32542;52.832;13.816;2024-01-30T04:57:53;102818.75;;;21.08;45.78
17254;BME280;32542;52.832;13.816;2024-01-30T05:00:56;102817.00;;;21.07;45.76
17254;BME280;32542;52.832;13.816;2024-01-30T05:03:59;102817.91;;;21.08;45.70
17254;BME280;32542;52.832;13.816;2024-01-30T05:07:03;102817.91;;;21.08;45.74
17254;BME280;32542;52.832;13.816;2024-01-30T05:10:08;102812.56;;;21.08;45.69
17254;BME280;32542;52.832;13.816;2024-01-30T05:13:11;102812.56;;;21.08;45.93
17254;BME280;32542;52.832;13.816;2024-01-30T05:16:15;102798.31;;;21.09;45.63
17254;BME280;32542;52.832;13.816;2024-01-30T05:19:18;102801.03;;;21.07;45.65
17254;BME280;32542;52.832;13.816;2024-01-30T05:22:22;102801.91;;;21.08;45.67
17254;BME280;32542;52.832;13.816;2024-01-30T05:25:26;102806.31;;;21.09;45.70
17254;BME280;32542;52.832;13.816;2024-01-30T05:28:29;102803.66;;;21.09;45.69
17254;BME280;32542;52.832;13.816;2024-01-30T05:31:32;102808.97;;;21.09;45.61
17254;BME280;32542;52.832;13.816;2024-01-30T05:34:35;102805.44;;;21.10;45.72
17254;BME280;32542;52.832;13.816;2024-01-30T05:37:38;102819.59;;;21.10;45.59
17254;BME280;32542;52.832;13.816;2024-01-30T05:40:43;102817.81;;;21.11;45.62
17254;BME280;32542;52.832;13.816;2024-01-30T05:43:46;102818.72;;;21.11;45.61
17254;BME280;32542;52.832;13.816;2024-01-30T05:46:49;102812.50;;;21.11;45.63
17254;BME280;32542;52.832;13.816;2024-01-30T05:49:52;102813.38;;;21.11;45.67
17254;BME280;32542;52.832;13.816;2024-01-30T05:52:55;102816.06;;;21.11;45.57
17254;BME280;32542;52.832;13.816;2024-01-30T05:55:59;102828.47;;;21.11;45.62
17254;BME280;32542;52.832;13.816;2024-01-30T05:59:02;102821.41;;;21.10;45.58
17254;BME280;32542;52.832;13.816;2024-01-30T06:02:05;102821.38;;;21.11;45.61
17254;BME280;32542;52.832;13.816;2024-01-30T06:05:08;102821.38;;;21.11;45.63
17254;BME280;32542;52.832;13.816;2024-01-30T06:08:11;102813.38;;;21.11;45.60
17254;BME280;32542;52.832;13.816;2024-01-30T06:11:16;102820.50;;;21.11;45.60
17254;BME280;32542;52.832;13.816;2024-01-30T06:14:19;102815.16;;;21.12;45.62
17254;BME280;32542;52.832;13.816;2024-01-30T06:17:22;102816.06;;;21.11;45.60
17254;BME280;32542;52.832;13.816;2024-01-30T06:20:25;102809.84;;;21.12;45.55
17254;BME280;32542;52.832;13.816;2024-01-30T06:23:28;102817.81;;;21.12;45.53
17254;BME280;32542;52.832;13.816;2024-01-30T06:26:32;102808.94;;;21.12;45.61
17254;BME280;32542;52.832;13.816;2024-01-30T06:29:35;102803.63;;;21.10;45.51
17254;BME280;32542;52.832;13.816;2024-01-30T06:32:38;102805.44;;;21.10;45.57
17254;BME280;32542;52.832;13.816;2024-01-30T06:35:41;102805.44;;;21.10;45.63
17254;BME280;32542;52.832;13.816;2024-01-30T06:38:45;102803.63;;;21.10;45.63
17254;BME280;32542;52.832;13.816;2024-01-30T06:41:50;102812.50;;;21.11;45.70
17254;BME280;32542;52.832;13.816;2024-01-30T06:44:53;102810.75;;;21.10;45.72
17254;BME280;32542;52.832;13.816;2024-01-30T06:47:56;102807.16;;;21.11;45.67
17254;BME280;32542;52.832;13.816;2024-01-30T06:50:59;102807.16;;;21.11;45.62
17254;BME280;32542;52.832;13.816;2024-01-30T06:54:02;102802.72;;;21.11;45.72
17254;BME280;32542;52.832;13.816;2024-01-30T06:57:07;102806.28;;;21.10;45.74
17254;BME280;32542;52.832;13.816;2024-01-30T07:00:14;102803.63;;;21.10;45.68
17254;BME280;32542;52.832;13.816;2024-01-30T07:03:17;102803.66;;;21.09;45.66
17254;BME280;32542;52.832;13.816;2024-01-30T07:06:20;102806.34;;;21.07;45.63
17254;BME280;32542;52.832;13.816;2024-01-30T07:09:23;102803.75;;;21.03;45.11
17254;BME280;32542;52.832;13.816;2024-01-30T07:12:28;102799.31;;;21.00;45.21
17254;BME280;32542;52.832;13.816;2024-01-30T07:15:33;102801.09;;;21.01;45.19
17254;BME280;32542;52.832;13.816;2024-01-30T07:18:36;102805.50;;;21.02;45.08
17254;BME280;32542;52.832;13.816;2024-01-30T07:21:39;102799.31;;;21.03;45.06
17254;BME280;32542;52.832;13.816;2024-01-30T07:24:42;102804.56;;;21.06;45.10
17254;BME280;32542;52.832;13.816;2024-01-30T07:27:50;102802.78;;;21.08;45.09
17254;BME280;32542;52.832;13.816;2024-01-30T07:30:53;102800.09;;;21.10;45.13
17254;BME280;32542;52.832;13.816;2024-01-30T07:33:56;102800.94;;;21.12;45.07
17254;BME280;32542;52.832;13.816;2024-01-30T07:36:59;102806.22;;;21.15;45.12
17254;BME280;32542;52.832;13.816;2024-01-30T07:40:02;102806.22;;;21.16;45.21
17254;BME280;32542;52.832;13.816;2024-01-30T07:43:07;102803.50;;;21.18;45.09
17254;BME280;32542;52.832;13.816;2024-01-30T07:46:11;102796.38;;;21.20;45.11
17254;BME280;32542;52.832;13.816;2024-01-30T07:49:14;102795.44;;;21.21;45.18
17254;BME280;32542;52.832;13.816;2024-01-30T07:52:17;102795.44;;;21.22;45.11
17254;BME280;32542;52.832;13.816;2024-01-30T07:55:20;102787.41;;;21.24;45.10
17254;BME280;32542;52.832;13.816;2024-01-30T07:58:27;102784.72;;;21.25;45.11
17254;BME280;32542;52.832;13.816;2024-01-30T08:01:30;102776.72;;;21.25;45.20
17254;BME280;32542;52.832;13.816;2024-01-30T08:04:33;102779.38;;;21.25;45.21
17254;BME280;32542;52.832;13.816;2024-01-30T08:07:36;102778.53;;;21.25;45.06
17254;BME280;32542;52.832;13.816;2024-01-30T08:10:39;102776.72;;;21.25;45.13
17254;BME280;32542;52.832;13.816;2024-01-30T08:13:43;102778.53;;;21.25;45.13
17254;BME280;32542;52.832;13.816;2024-01-30T08:16:46;102781.16;;;21.26;45.27
17254;BME280;32542;52.832;13.816;2024-01-30T08:19:49;102778.53;;;21.25;45.30
17254;BME280;32542;52.832;13.816;2024-01-30T08:22:53;102773.19;;;21.23;45.24
17254;BME280;32542;52.832;13.816;2024-01-30T08:25:55;102778.53;;;21.25;45.31
17254;BME280;32542;52.832;13.816;2024-01-30T08:29:00;102772.31;;;21.24;45.31
17254;BME280;32542;52.832;13.816;2024-01-30T08:32:05;102770.53;;;21.23;45.35
17254;BME280;32542;52.832;13.816;2024-01-30T08:35:08;102775.88;;;21.23;45.19
17254;BME280;32542;52.832;13.816;2024-01-30T08:38:11;102780.34;;;21.23;45.32
17254;BME280;32542;52.832;13.816;2024-01-30T08:41:14;102777.69;;;21.21;45.47
17254;BME280;32542;52.832;13.816;2024-01-30T08:44:18;102770.59;;;21.20;45.30
17254;BME280;32542;52.832;13.816;2024-01-30T08:47:21;102775.03;;;21.20;45.34
17254;BME280;32542;52.832;13.816;2024-01-30T08:50:24;102754.63;;;21.19;45.30
17254;BME280;32542;52.832;13.816;2024-01-30T08:53:27;102751.09;;;21.18;45.36
17254;BME280;32542;52.832;13.816;2024-01-30T08:56:30;102759.09;;;21.18;45.40
17254;BME280;32542;52.832;13.816;2024-01-30T08:59:35;102753.78;;;21.18;45.35
17254;BME280;32542;52.832;13.816;2024-01-30T09:02:38;102757.28;;;21.19;45.36
17254;BME280;32542;52.832;13.816;2024-01-30T09:05:41;102759.94;;;21.19;45.47
17254;BME280;32542;52.832;13.816;2024-01-30T09:08:44;102763.53;;;21.18;45.35
17254;BME280;32542;52.832;13.816;2024-01-30T09:11:47;102761.72;;;21.20;45.37
17254;BME280;32542;52.832;13.816;2024-01-30T09:14:51;102761.72;;;21.20;45.47
17254;BME280;32542;52.832;13.816;2024-01-30T09:17:54;102764.38;;;21.20;45.50
17254;BME280;32542;52.832;13.816;2024-01-30T09:20:57;102767.03;;;21.21;45.42
17254;BME280;32542;52.832;13.816;2024-01-30T09:24:02;102768.78;;;21.21;45.44
17254;BME280;32542;52.832;13.816;2024-01-30T09:27:06;102765.25;;;21.22;45.50
17254;BME280;32542;52.832;13.816;2024-01-30T09:30:10;102766.13;;;21.21;45.42
17254;BME280;32542;52.832;13.816;2024-01-30T09:33:13;102757.28;;;21.19;45.39
17254;BME280;32542;52.832;13.816;2024-01-30T09:36:17;102758.16;;;21.19;45.37
17254;BME280;32542;52.832;13.816;2024-01-30T09:39:21;102757.28;;;21.19;45.41
17254;BME280;32542;52.832;13.816;2024-01-30T09:42:28;102761.75;;;21.18;45.41
17254;BME280;32542;52.832;13.816;2024-01-30T09:45:36;102761.75;;;21.18;45.47
17254;BME280;32542;52.832;13.816;2024-01-30T09:48:41;102759.09;;;21.17;45.44
17254;BME280;32542;52.832;13.816;2024-01-30T09:51:44;102759.09;;;21.17;45.47
17254;BME280;32542;52.832;13.816;2024-01-30T09:54:49;102754.69;;;21.16;45.52
17254;BME280;32542;52.832;13.816;2024-01-30T09:57:53;102752.94;;;21.15;45.42
17254;BME280;32542;52.832;13.816;2024-01-30T10:00:58;102742.25;;;21.16;45.54
17254;BME280;32542;52.832;13.816;2024-01-30T10:04:01;102744.94;;;21.16;45.47
17254;BME280;32542;52.832;13.816;2024-01-30T10:07:04;102744.94;;;21.16;45.55
17254;BME280;32542;52.832;13.816;2024-01-30T10:10:07;102741.38;;;21.16;45.68
17254;BME280;32542;52.832;13.816;2024-01-30T10:13:10;102736.94;;;21.16;45.56
17254;BME280;32542;52.832;13.816;2024-01-30T10:16:15;102728.06;;;21.16;45.74
17254;BME280;32542;52.832;13.816;2024-01-30T10:19:18;102727.13;;;21.17;45.67
17254;BME280;32542;52.832;13.816;2024-01-30T10:22:21;102728.91;;;21.18;45.72
17254;BME280;32542;52.832;13.816;2024-01-30T10:25:25;102731.56;;;21.18;45.75
17254;BME280;32542;52.832;13.816;2024-01-30T10:28:28;102727.13;;;21.18;45.77
17254;BME280;32542;52.832;13.816;2024-01-30T10:31:33;102719.97;;;21.19;45.77
17254;BME280;32542;52.832;13.816;2024-01-30T10:34:37;102720.88;;;21.19;45.75
17254;BME280;32542;52.832;13.816;2024-01-30T10:37:43;102720.88;;;21.19;45.70
17254;BME280;32542;52.832;13.816;2024-01-30T10:40:47;102721.75;;;21.20;45.69
17254;BME280;32542;52.832;13.816;2024-01-30T10:44:01;102714.66;;;21.20;45.73
17254;BME280;32542;52.832;13.816;2024-01-30T10:47:10;102717.31;;;21.20;45.73
17254;BME280;32542;52.832;13.816;2024-01-30T10:50:14;102716.44;;;21.20;45.66
17254;BME280;32542;52.832;13.816;2024-01-30T10:53:18;102714.66;;;21.19;45.69
17254;BME280;32542;52.832;13.816;2024-01-30T10:56:22;102706.66;;;21.19;45.65
17254;BME280;32542;52.832;13.816;2024-01-30T10:59:26;102709.31;;;21.19;45.69
17254;BME280;32542;52.832;13.816;2024-01-30T11:02:31;102699.59;;;21.18;45.58
17254;BME280;32542;52.832;13.816;2024-01-30T11:05:35;102701.38;;;21.17;45.55
17254;BME280;32542;52.832;13.816;2024-01-30T11:08:38;102701.38;;;21.17;45.65
17254;BME280;32542;52.832;13.816;2024-01-30T11:11:51;102700.47;;;21.17;45.51
17254;BME280;32542;52.832;13.816;2024-01-30T11:15:12;102687.16;;;21.17;45.66
17254;BME280;32542;52.832;13.816;2024-01-30T11:18:24;102687.16;;;21.17;45.58
17254;BME280;32542;52.832;13.816;2024-01-30T11:21:28;102688.94;;;21.18;45.61
17254;BME280;32542;52.832;13.816;2024-01-30T11:24:38;102687.16;;;21.18;45.69
17254;BME280;32542;52.832;13.816;2024-01-30T11:27:42;102681.81;;;21.18;45.67
17254;BME280;32542;52.832;13.816;2024-01-30T11:30:46;102680.91;;;21.19;45.69
17254;BME280;32542;52.832;13.816;2024-01-30T11:33:54;102679.13;;;21.20;45.65
17254;BME280;32542;52.832;13.816;2024-01-30T11:36:59;102677.34;;;21.19;45.81
17254;BME280;32542;52.832;13.816;2024-01-30T11:40:04;102683.59;;;21.18;45.58
17254;BME280;32542;52.832;13.816;2024-01-30T11:43:08;102683.59;;;21.18;45.70
17254;BME280;32542;52.832;13.816;2024-01-30T11:46:13;102682.69;;;21.19;45.63
17254;BME280;32542;52.832;13.816;2024-01-30T11:49:18;102678.28;;;21.18;45.60
17254;BME280;32542;52.832;13.816;2024-01-30T11:52:22;102673.00;;;21.16;45.52
17254;BME280;32542;52.832;13.816;2024-01-30T11:55:25;102673.00;;;21.16;45.58
17254;BME280;32542;52.832;13.816;2024-01-30T11:58:34;102669.44;;;21.16;45.66
17254;BME280;32542;52.832;13.816;2024-01-30T12:01:37;102661.44;;;21.16;45.64
17254;BME280;32542;52.832;13.816;2024-01-30T12:04:43;102666.78;;;21.16;45.63
17254;BME280;32542;52.832;13.816;2024-01-30T12:07:46;102658.78;;;21.16;45.74
17254;BME280;32542;52.832;13.816;2024-01-30T12:10:55;102663.19;;;21.17;45.76
17254;BME280;32542;52.832;13.816;2024-01-30T12:13:59;102658.75;;;21.17;45.79
17254;BME280;32542;52.832;13.816;2024-01-30T12:17:02;102651.63;;;21.18;45.63
17254;BME280;32542;52.832;13.816;2024-01-30T12:20:08;102645.41;;;21.17;45.70
17254;BME280;32542;52.832;13.816;2024-01-30T12:23:12;102644.53;;;21.17;45.58
17254;BME280;32542;52.832;13.816;2024-01-30T12:26:15;102641.00;;;21.16;45.71
17254;BME280;32542;52.832;13.816;2024-01-30T12:29:20;102636.53;;;21.17;45.60
17254;BME280;32542;52.832;13.816;2024-01-30T12:32:23;102634.81;;;21.16;45.61
17254;BME280;32542;52.832;13.816;2024-01-30T12:35:28;102626.84;;;21.14;45.65
17254;BME280;32542;52.832;13.816;2024-01-30T12:38:34;102627.69;;;21.15;45.73
17254;BME280;32542;52.832;13.816;2024-01-30T12:41:37;102615.31;;;21.14;45.72
17254;BME280;32542;52.832;13.816;2024-01-30T12:44:40;102620.63;;;21.14;45.67
17254;BME280;32542;52.832;13.816;2024-01-30T12:47:44;102611.78;;;21.12;45.75
17254;BME280;32542;52.832;13.816;2024-01-30T12:50:48;102610.88;;;21.13;45.66
17254;BME280;32542;52.832;13.816;2024-01-30T12:53:51;102602.88;;;21.13;45.80
17254;BME280;32542;52.832;13.816;2024-01-30T12:56:54;102598.44;;;21.13;45.75
17254;BME280;32542;52.832;13.816;2024-01-30T12:59:58;102607.31;;;21.14;45.79
17254;BME280;32542;52.832;13.816;2024-01-30T13:03:01;102601.06;;;21.15;45.79
17254;BME280;32542;52.832;13.816;2024-01-30T13:06:06;102595.72;;;21.15;45.76
17254;BME280;32542;52.832;13.816;2024-01-30T13:09:09;102595.72;;;21.15;45.76
17254;BME280;32542;52.832;13.816;2024-01-30T13:12:12;102601.97;;;21.14;45.74
17254;BME280;32542;52.832;13.816;2024-01-30T13:15:15;102597.53;;;21.14;45.79
17254;BME280;32542;52.832;13.816;2024-01-30T13:18:18;102599.31;;;21.14;45.72
17254;BME280;32542;52.832;13.816;2024-01-30T13:21:22;102599.31;;;21.14;45.77
17254;BME280;32542;52.832;13.816;2024-01-30T13:24:25;102597.53;;;21.14;45.71
17254;BME280;32542;52.832;13.816;2024-01-30T13:27:28;102601.09;;;21.13;45.66
17254;BME280;32542;52.832;13.816;2024-01-30T13:30:31;102595.81;;;21.12;45.84
17254;BME280;32542;52.832;13.816;2024-01-30T13:33:34;102587.81;;;21.12;45.74
17254;BME280;32542;52.832;13.816;2024-01-30T13:36:38;102582.50;;;21.12;45.86
17254;BME280;32542;52.832;13.816;2024-01-30T13:39:41;102578.91;;;21.13;45.75
17254;BME280;32542;52.832;13.816;2024-01-30T13:42:44;102584.22;;;21.13;45.77
17254;BME280;32542;52.832;13.816;2024-01-30T13:45:47;102582.50;;;21.12;45.82
17254;BME280;32542;52.832;13.816;2024-01-30T13:48:50;102577.13;;;21.13;45.85
17254;BME280;32542;52.832;13.816;2024-01-30T13:51:55;102575.34;;;21.14;45.89
17254;BME280;32542;52.832;13.816;2024-01-30T13:54:58;102579.78;;;21.13;45.86
17254;BME280;32542;52.832;13.816;2024-01-30T13:58:01;102582.50;;;21.12;45.88
17254;BME280;32542;52.832;13.816;2024-01-30T14:01:05;102581.56;;;21.13;45.70
17254;BME280;32542;52.832;13.816;2024-01-30T14:04:08;102584.28;;;21.11;45.75
17254;BME280;32542;52.832;13.816;2024-01-30T14:07:15;102580.72;;;21.11;45.73
17254;BME280;32542;52.832;13.816;2024-01-30T14:10:20;102573.63;;;21.11;45.71
17254;BME280;32542;52.832;13.816;2024-01-30T14:13:23;102577.16;;;21.10;45.81
17254;BME280;32542;52.832;13.816;2024-01-30T14:16:27;102570.09;;;21.09;45.71
17254;BME280;32542;52.832;13.816;2024-01-30T14:19:30;102571.00;;;21.10;45.78
17254;BME280;32542;52.832;13.816;2024-01-30T14:22:34;102560.34;;;21.10;45.84
17254;BME280;32542;52.832;13.816;2024-01-30T14:25:37;102561.19;;;21.10;45.89
17254;BME280;32542;52.832;13.816;2024-01-30T14:28:41;102562.06;;;21.11;45.86
17254;BME280;32542;52.832;13.816;2024-01-30T14:31:45;102556.75;;;21.11;45.88
17254;BME280;32542;52.832;13.816;2024-01-30T14:34:48;102563.84;;;21.12;45.79
17254;BME280;32542;52.832;13.816;2024-01-30T14:37:53;102559.41;;;21.12;45.82
17254;BME280;32542;52.832;13.816;2024-01-30T14:40:56;102561.19;;;21.12;45.90
17254;BME280;32542;52.832;13.816;2024-01-30T14:43:59;102565.66;;;21.10;45.81
17254;BME280;32542;52.832;13.816;2024-01-30T14:47:03;102565.66;;;21.10;45.83
17254;BME280;32542;52.832;13.816;2024-01-30T14:50:06;102571.84;;;21.10;45.66
17254;BME280;32542;52.832;13.816;2024-01-30T14:53:11;102566.56;;;21.09;45.79
17254;BME280;32542;52.832;13.816;2024-01-30T14:56:14;102567.44;;;21.09;45.73
17254;BME280;32542;52.832;13.816;2024-01-30T14:59:17;102568.34;;;21.08;45.78
17254;BME280;32542;52.832;13.816;2024-01-30T15:02:20;102563.88;;;21.09;45.83
17254;BME280;32542;52.832;13.816;2024-01-30T15:05:23;102565.66;;;21.08;45.69
17254;BME280;32542;52.832;13.816;2024-01-30T15:08:27;102576.31;;;21.08;45.80
17254;BME280;32542;52.832;13.816;2024-01-30T15:11:31;102571.88;;;21.09;45.76
17254;BME280;32542;52.832;13.816;2024-01-30T15:14:34;102571.00;;;21.10;45.76
17254;BME280;32542;52.832;13.816;2024-01-30T15:17:38;102565.66;;;21.10;45.84
17254;BME280;32542;52.832;13.816;2024-01-30T15:20:41;102567.41;;;21.11;45.86
17254;BME280;32542;52.832;13.816;2024-01-30T15:23:45;102570.06;;;21.11;45.78
17254;BME280;32542;52.832;13.816;2024-01-30T15:26:48;102568.31;;;21.10;45.90
17254;BME280;32542;52.832;13.816;2024-01-30T15:29:51;102560.34;;;21.10;45.74
17254;BME280;32542;52.832;13.816;2024-01-30T15:32:54;102563.88;;;21.09;45.85
17254;BME280;32542;52.832;13.816;2024-01-30T15:35:57;102572.81;;;21.08;45.98
17254;BME280;32542;52.832;13.816;2024-01-30T15:39:02;102580.75;;;21.09;46.15
17254;BME280;32542;52.832;13.816;2024-01-30T15:42:07;102576.31;;;21.08;45.93
17254;BME280;32542;52.832;13.816;2024-01-30T15:45:10;102578.09;;;21.09;46.12
17254;BME280;32542;52.832;13.816;2024-01-30T15:48:13;102574.53;;;21.09;46.02